Time;durP1;ratioP1;P1;durP2;ratioP2;P2;SDS_P1;SDS_P2;PMS_P1;PMS_P2;Temp;Humidity;BMP_temperature;BMP_pressure;BME280_temperature;BME280_humidity;BME280_pressure;Samples;Min_cycle;Max_cycle;Signal;HPM_P1;HPM_P2
2021/04/28 00:00:36;;;;;;;8.32;2.30;;;16.70;51.10;;;;;;5031455;28;20048;-67
2021/04/28 00:03:07;;;;;;;7.07;2.35;;;16.70;51.10;;;;;;5013465;28;20069;-68
2021/04/28 00:05:34;;;;;;;6.47;2.20;;;16.60;51.10;;;;;;5042193;28;20491;-70
2021/04/28 00:08:00;;;;;;;5.22;2.08;;;16.60;51.20;;;;;;5031523;28;20120;-68
2021/04/28 00:10:29;;;;;;;7.57;2.20;;;16.60;51.30;;;;;;5051257;28;20100;-69
2021/04/28 00:12:54;;;;;;;5.72;2.20;;;16.60;51.30;;;;;;5033228;28;20060;-68
2021/04/28 00:15:23;;;;;;;5.82;2.30;;;16.60;51.30;;;;;;5050451;28;20060;-69
2021/04/28 00:17:51;;;;;;;4.95;2.13;;;16.60;51.40;;;;;;5051180;28;20395;-68
2021/04/28 00:20:17;;;;;;;6.95;2.10;;;16.50;51.40;;;;;;5033339;28;20024;-68
2021/04/28 00:22:43;;;;;;;5.10;2.05;;;16.50;51.40;;;;;;5048182;28;20032;-69
2021/04/28 00:25:12;;;;;;;4.68;1.83;;;16.50;51.50;;;;;;5034767;28;20032;-69
2021/04/28 00:27:38;;;;;;;3.95;1.77;;;16.50;51.50;;;;;;5035021;28;20021;-69
2021/04/28 00:30:07;;;;;;;5.97;2.17;;;16.50;51.60;;;;;;5036121;28;20596;-69
2021/04/28 00:32:34;;;;;;;7.05;2.00;;;16.50;51.60;;;;;;5035243;28;20018;-68
2021/04/28 00:35:01;;;;;;;7.25;2.33;;;16.40;51.60;;;;;;5034749;28;20381;-68
2021/04/28 00:37:27;;;;;;;4.10;1.90;;;16.40;51.60;;;;;;5034936;28;20026;-68
2021/04/28 00:39:52;;;;;;;4.57;1.85;;;16.40;51.70;;;;;;5041835;28;20032;-69
2021/04/28 00:42:18;;;;;;;6.00;2.30;;;16.40;51.70;;;;;;5054667;28;20028;-69
2021/04/28 00:44:44;;;;;;;6.65;2.13;;;16.40;51.80;;;;;;5036080;28;20021;-68
2021/04/28 00:47:09;;;;;;;5.15;2.35;;;16.40;51.80;;;;;;5054796;28;20025;-69
2021/04/28 00:49:35;;;;;;;6.65;2.38;;;16.40;51.90;;;;;;5053874;28;20051;-69
2021/04/28 00:52:03;;;;;;;6.32;2.10;;;16.40;52.00;;;;;;5054706;28;20029;-68
2021/04/28 00:54:29;;;;;;;5.93;1.90;;;16.30;52.00;;;;;;5053389;28;20040;-68
2021/04/28 00:56:57;;;;;;;5.20;1.98;;;16.30;52.10;;;;;;5036503;28;20040;-69
2021/04/28 00:59:23;;;;;;;5.43;2.50;;;16.30;52.10;;;;;;5054154;28;20567;-69
2021/04/28 01:01:49;;;;;;;6.25;2.20;;;16.30;52.20;;;;;;5049119;28;20113;-70
2021/04/28 01:04:15;;;;;;;5.78;1.83;;;16.30;52.30;;;;;;5032141;28;20032;-69
2021/04/28 01:06:44;;;;;;;4.63;2.10;;;16.20;52.30;;;;;;5052716;28;20430;-70
2021/04/28 01:09:11;;;;;;;4.80;1.83;;;16.30;52.40;;;;;;5053579;28;20549;-69
2021/04/28 01:11:37;;;;;;;4.10;1.95;;;16.20;52.30;;;;;;5035346;28;20672;-69
2021/04/28 01:14:03;;;;;;;6.82;2.10;;;16.20;52.40;;;;;;5052888;28;20036;-69
2021/04/28 01:16:29;;;;;;;4.43;1.70;;;16.20;52.40;;;;;;5035447;28;20060;-69
2021/04/28 01:18:55;;;;;;;5.05;2.03;;;16.20;52.50;;;;;;5051438;28;20048;-69
2021/04/28 01:21:22;;;;;;;4.75;1.83;;;16.20;52.50;;;;;;5044690;28;20021;-69
2021/04/28 01:23:47;;;;;;;4.80;1.90;;;16.20;52.60;;;;;;5052600;28;20103;-68
2021/04/28 01:26:14;;;;;;;5.82;2.20;;;16.10;52.60;;;;;;5053078;28;20614;-69
2021/04/28 01:28:40;;;;;;;4.00;1.80;;;16.10;52.70;;;;;;5053439;28;20052;-69
2021/04/28 01:31:10;;;;;;;5.80;2.00;;;16.10;52.80;;;;;;5053291;28;20095;-68
2021/04/28 01:33:39;;;;;;;5.53;2.05;;;16.10;52.80;;;;;;5038504;28;20041;-69
2021/04/28 01:36:10;;;;;;;5.13;1.85;;;16.10;52.90;;;;;;5014424;28;20029;-68
2021/04/28 01:38:40;;;;;;;4.70;1.73;;;16.10;53.00;;;;;;5033126;28;20113;-69
2021/04/28 01:41:07;;;;;;;5.18;1.85;;;16.10;53.10;;;;;;5033037;28;20033;-70
2021/04/28 01:43:33;;;;;;;5.55;1.88;;;16.00;53.00;;;;;;5029049;28;20025;-68
2021/04/28 01:45:59;;;;;;;5.68;2.05;;;16.00;53.00;;;;;;5052518;28;20119;-68
2021/04/28 01:48:25;;;;;;;3.97;1.83;;;16.00;53.10;;;;;;5034372;28;20036;-69
2021/04/28 01:50:51;;;;;;;5.80;1.98;;;16.00;53.10;;;;;;5052787;28;20044;-69
2021/04/28 01:53:21;;;;;;;7.22;1.80;;;16.00;53.20;;;;;;5052195;28;20037;-68
2021/04/28 01:55:51;;;;;;;3.85;1.70;;;15.90;53.10;;;;;;5029325;28;20484;-68
2021/04/28 01:58:18;;;;;;;3.80;1.63;;;15.90;53.20;;;;;;5033944;28;20072;-69
2021/04/28 02:00:44;;;;;;;4.65;1.85;;;15.90;53.20;;;;;;5014974;28;20053;-68
2021/04/28 02:03:09;;;;;;;4.75;1.80;;;15.90;53.20;;;;;;5015209;28;20029;-69
2021/04/28 02:05:35;;;;;;;4.57;1.98;;;15.90;53.20;;;;;;5014673;28;20378;-69
2021/04/28 02:08:01;;;;;;;4.47;1.88;;;15.90;53.20;;;;;;5032487;28;20055;-68
2021/04/28 02:10:27;;;;;;;4.45;1.80;;;15.80;53.20;;;;;;5015912;28;20034;-69
2021/04/28 02:12:53;;;;;;;5.97;1.65;;;15.90;53.30;;;;;;5032652;28;20087;-69
2021/04/28 02:15:21;;;;;;;3.50;1.83;;;15.90;53.30;;;;;;5032091;28;20392;-68
2021/04/28 02:17:51;;;;;;;4.15;2.05;;;15.80;53.30;;;;;;5032738;28;20509;-68
2021/04/28 02:20:17;;;;;;;4.90;1.60;;;15.80;53.40;;;;;;5031213;28;20013;-68
2021/04/28 02:22:43;;;;;;;6.22;1.95;;;15.80;53.40;;;;;;5032157;28;20026;-69
2021/04/28 02:25:10;;;;;;;4.80;2.20;;;15.80;53.50;;;;;;5032119;28;20024;-68
2021/04/28 02:27:37;;;;;;;4.88;1.95;;;15.80;53.50;;;;;;5032413;28;20025;-69
2021/04/28 02:30:05;;;;;;;5.57;1.77;;;15.80;53.60;;;;;;5033539;28;20020;-69
2021/04/28 02:32:31;;;;;;;4.18;1.92;;;15.70;53.50;;;;;;5034229;28;20025;-69
2021/04/28 02:34:57;;;;;;;5.63;2.08;;;15.70;53.60;;;;;;5051787;28;20028;-69
2021/04/28 02:37:26;;;;;;;3.92;1.63;;;15.80;53.70;;;;;;5037744;28;20017;-68
2021/04/28 02:39:59;;;;;;;3.85;1.58;;;15.70;53.60;;;;;;5032447;28;20025;-69
2021/04/28 02:42:24;;;;;;;4.55;1.83;;;15.70;53.70;;;;;;5014115;28;20451;-69
2021/04/28 02:44:51;;;;;;;3.17;1.70;;;15.70;53.70;;;;;;5031410;28;20029;-69
2021/04/28 02:47:17;;;;;;;5.40;1.60;;;15.70;53.70;;;;;;5050396;28;20032;-68
2021/04/28 02:49:44;;;;;;;4.35;1.70;;;15.70;53.80;;;;;;5051849;28;20025;-68
2021/04/28 02:52:12;;;;;;;3.92;1.55;;;15.70;53.80;;;;;;5032970;28;20554;-68
2021/04/28 02:54:38;;;;;;;3.45;1.70;;;15.60;53.70;;;;;;5033518;28;20028;-69
2021/04/28 02:57:05;;;;;;;2.75;1.60;;;15.70;53.90;;;;;;5051528;28;20029;-69
2021/04/28 02:59:31;;;;;;;4.07;1.80;;;15.60;53.80;;;;;;5033594;28;20479;-69
2021/04/28 03:01:56;;;;;;;3.13;1.70;;;15.60;53.90;;;;;;5051294;28;20061;-66
2021/04/28 03:04:22;;;;;;;4.97;1.90;;;15.60;53.90;;;;;;5054799;22;20454;-60
2021/04/28 03:06:48;;;;;;;4.85;2.00;;;15.60;53.90;;;;;;5030964;28;20029;-65
2021/04/28 03:09:14;;;;;;;3.67;1.98;;;15.60;54.00;;;;;;5030424;28;20033;-64
2021/04/28 03:11:43;;;;;;;4.07;2.05;;;15.60;54.00;;;;;;5030432;28;20034;-64
2021/04/28 03:14:09;;;;;;;4.60;1.80;;;15.60;54.10;;;;;;5029819;28;20025;-64
2021/04/28 03:16:35;;;;;;;4.53;2.00;;;15.60;54.10;;;;;;5026513;28;20036;-64
2021/04/28 03:19:02;;;;;;;3.72;1.80;;;15.50;54.00;;;;;;5010498;28;20033;-65
2021/04/28 03:21:32;;;;;;;5.32;1.70;;;15.50;54.00;;;;;;5010236;28;20064;-65
2021/04/28 03:24:00;;;;;;;3.78;1.70;;;15.50;54.10;;;;;;5011410;28;20049;-63
2021/04/28 03:26:25;;;;;;;4.38;1.80;;;15.50;54.10;;;;;;5014448;28;20022;-65
2021/04/28 03:28:52;;;;;;;4.40;1.70;;;15.50;54.20;;;;;;5031060;28;20488;-65
2021/04/28 03:31:17;;;;;;;3.10;1.65;;;15.50;54.20;;;;;;5031409;28;20092;-62
2021/04/28 03:33:43;;;;;;;3.40;1.50;;;15.50;54.20;;;;;;5029910;28;20048;-66
2021/04/28 03:36:08;;;;;;;4.32;1.65;;;15.40;54.20;;;;;;5029907;28;20056;-64
2021/04/28 03:38:34;;;;;;;3.72;1.70;;;15.50;54.30;;;;;;5012398;28;20062;-65
2021/04/28 03:41:00;;;;;;;3.88;1.85;;;15.50;54.40;;;;;;5010916;28;20030;-65
2021/04/28 03:43:25;;;;;;;4.15;1.95;;;15.40;54.40;;;;;;5022564;28;20040;-66
2021/04/28 03:45:54;;;;;;;4.47;2.30;;;15.40;54.30;;;;;;5021750;28;20041;-65
2021/04/28 03:48:20;;;;;;;4.78;2.22;;;15.40;54.40;;;;;;5011386;28;20111;-66
2021/04/28 03:50:46;;;;;;;5.07;2.10;;;15.40;54.40;;;;;;5009886;28;20073;-64
2021/04/28 03:53:11;;;;;;;2.92;1.73;;;15.40;54.40;;;;;;5010412;28;20515;-65
2021/04/28 03:55:37;;;;;;;4.13;2.00;;;15.40;54.40;;;;;;5015506;28;20029;-65
2021/04/28 03:58:03;;;;;;;5.07;2.08;;;15.40;54.40;;;;;;5030750;28;20018;-65
2021/04/28 04:00:28;;;;;;;4.85;2.47;;;15.40;54.50;;;;;;5030064;28;20475;-64
2021/04/28 04:02:54;;;;;;;6.28;2.10;;;15.30;54.40;;;;;;5029597;28;20052;-64
2021/04/28 04:05:19;;;;;;;3.75;2.03;;;15.40;54.40;;;;;;5028283;28;20036;-64
2021/04/28 04:07:45;;;;;;;4.57;2.30;;;15.30;54.40;;;;;;5030669;28;20021;-66
2021/04/28 04:10:11;;;;;;;4.20;2.15;;;15.30;54.40;;;;;;5030857;28;20095;-64
2021/04/28 04:12:37;;;;;;;4.90;2.20;;;15.30;54.40;;;;;;5029896;28;20022;-65
2021/04/28 04:15:04;;;;;;;4.57;2.17;;;15.30;54.40;;;;;;5022530;28;20037;-63
2021/04/28 04:17:30;;;;;;;5.22;2.25;;;15.30;54.60;;;;;;5009721;28;20509;-65
2021/04/28 04:19:55;;;;;;;4.50;2.00;;;15.30;54.50;;;;;;5010937;28;20029;-65
2021/04/28 04:22:21;;;;;;;3.45;1.60;;;15.30;54.60;;;;;;5011212;28;20034;-64
2021/04/28 04:24:46;;;;;;;4.25;1.95;;;15.30;54.60;;;;;;5010557;28;20054;-65
2021/04/28 04:27:12;;;;;;;5.32;1.77;;;15.30;54.60;;;;;;5010989;28;20025;-64
2021/04/28 04:29:37;;;;;;;4.07;1.83;;;15.30;54.60;;;;;;5010717;28;20596;-65
2021/04/28 04:32:03;;;;;;;5.30;1.83;;;15.30;54.60;;;;;;5010754;28;20033;-65
2021/04/28 04:34:29;;;;;;;4.88;2.10;;;15.30;54.60;;;;;;5022812;28;20030;-66
2021/04/28 04:36:54;;;;;;;5.78;1.88;;;15.30;54.70;;;;;;5018446;28;20044;-63
2021/04/28 04:39:19;;;;;;;5.88;1.98;;;15.40;54.80;;;;;;5022704;28;20030;-64
2021/04/28 04:41:45;;;;;;;5.63;2.35;;;15.30;54.70;;;;;;5018077;28;20823;-66
2021/04/28 04:44:11;;;;;;;6.68;2.13;;;15.40;54.80;;;;;;5018424;28;20083;-64
2021/04/28 04:46:36;;;;;;;4.75;2.05;;;15.40;54.80;;;;;;5021223;28;20034;-64
2021/04/28 04:49:02;;;;;;;4.75;2.10;;;15.40;54.70;;;;;;5006599;28;20519;-66
2021/04/28 04:51:27;;;;;;;5.00;2.20;;;15.40;54.70;;;;;;5004530;28;20078;-64
2021/04/28 04:53:53;;;;;;;4.45;2.15;;;15.40;54.50;;;;;;5004248;28;20370;-64
2021/04/28 04:56:19;;;;;;;3.53;2.10;;;15.40;54.30;;;;;;5009753;28;20496;-64
2021/04/28 04:58:44;;;;;;;6.57;2.10;;;15.40;54.30;;;;;;5003930;28;20025;-63
2021/04/28 05:01:10;;;;;;;4.78;2.15;;;15.50;54.20;;;;;;5003148;28;20026;-63
2021/04/28 05:03:35;;;;;;;4.97;1.83;;;15.50;54.10;;;;;;5017532;28;20032;-66
2021/04/28 05:06:01;;;;;;;7.07;2.10;;;15.60;54.00;;;;;;5022050;28;20034;-66
2021/04/28 05:08:26;;;;;;;3.67;1.83;;;15.60;54.00;;;;;;5004559;28;20128;-66
2021/04/28 05:10:53;;;;;;;7.07;2.38;;;15.60;53.90;;;;;;5008589;28;20087;-65
2021/04/28 05:13:19;;;;;;;5.82;2.35;;;15.60;54.00;;;;;;5014849;28;20030;-64
2021/04/28 05:15:44;;;;;;;6.05;2.15;;;15.70;54.10;;;;;;5012141;28;20029;-65
2021/04/28 05:18:10;;;;;;;18.88;3.10;;;15.70;54.10;;;;;;5021437;28;20104;-68
2021/04/28 05:20:35;;;;;;;9.15;2.38;;;15.70;54.70;;;;;;5026989;28;20071;-62
2021/04/28 05:23:01;;;;;;;7.80;2.28;;;15.80;54.50;;;;;;5019057;28;20045;-63
2021/04/28 05:25:27;;;;;;;10.13;2.65;;;15.80;54.40;;;;;;5007195;28;20083;-63
2021/04/28 05:27:52;;;;;;;10.13;2.38;;;15.80;54.30;;;;;;5022210;28;20404;-64
2021/04/28 05:30:20;;;;;;;6.13;2.22;;;16.00;54.40;;;;;;5020247;28;20025;-63
2021/04/28 05:32:46;;;;;;;9.90;2.58;;;16.00;54.30;;;;;;5015213;28;20018;-64
2021/04/28 05:35:12;;;;;;;9.48;2.20;;;16.20;54.40;;;;;;5013195;28;20220;-64
2021/04/28 05:37:38;;;;;;;8.02;2.17;;;16.30;53.80;;;;;;5008835;28;20030;-62
2021/04/28 05:40:06;;;;;;;7.05;2.30;;;16.40;53.10;;;;;;5016980;28;20037;-63
2021/04/28 05:42:32;;;;;;;10.57;2.60;;;16.50;52.80;;;;;;5027047;28;20033;-63
2021/04/28 05:44:57;;;;;;;6.65;2.20;;;16.60;52.10;;;;;;5026707;28;20029;-63
2021/04/28 05:47:23;;;;;;;9.75;2.38;;;16.70;52.20;;;;;;5026434;28;20412;-65
2021/04/28 05:49:49;;;;;;;7.10;2.47;;;16.70;52.10;;;;;;5026641;28;20031;-65
2021/04/28 05:52:14;;;;;;;6.20;2.10;;;16.80;51.80;;;;;;5027236;28;20487;-64
2021/04/28 05:54:40;;;;;;;8.85;2.20;;;16.80;51.70;;;;;;5017000;28;20128;-63
2021/04/28 05:57:06;;;;;;;8.38;2.17;;;16.90;51.70;;;;;;5013179;28;20524;-63
2021/04/28 05:59:31;;;;;;;6.25;2.38;;;16.90;51.40;;;;;;5016616;28;20024;-66
2021/04/28 06:01:57;;;;;;;11.25;2.35;;;17.00;51.50;;;;;;5022349;28;20033;-63
2021/04/28 06:04:22;;;;;;;8.73;2.20;;;17.00;51.10;;;;;;5014412;28;20434;-63
2021/04/28 06:06:48;;;;;;;8.35;2.03;;;17.10;51.00;;;;;;5006648;28;20405;-63
2021/04/28 06:09:13;;;;;;;6.72;2.00;;;17.20;50.90;;;;;;5005888;28;20030;-65
2021/04/28 06:11:39;;;;;;;7.57;2.70;;;17.20;50.50;;;;;;5003719;28;20029;-64
2021/04/28 06:14:05;;;;;;;9.55;2.67;;;17.30;49.70;;;;;;5007072;28;20036;-62
2021/04/28 06:16:31;;;;;;;6.45;2.22;;;17.30;49.30;;;;;;5023506;28;20506;-61
2021/04/28 06:18:57;;;;;;;6.55;2.30;;;17.40;49.20;;;;;;5025999;28;20064;-63
2021/04/28 06:21:22;;;;;;;6.03;2.10;;;17.50;49.30;;;;;;5024590;28;20064;-62
2021/04/28 06:23:48;;;;;;;6.32;2.00;;;17.50;49.00;;;;;;5013197;28;20401;-63
2021/04/28 06:26:14;;;;;;;9.50;2.33;;;17.50;48.80;;;;;;5005258;28;20034;-64
2021/04/28 06:28:39;;;;;;;5.70;2.10;;;17.60;48.80;;;;;;5009022;28;20033;-61
2021/04/28 06:31:05;;;;;;;8.57;2.35;;;17.70;48.80;;;;;;5025887;28;20388;-63
2021/04/28 06:33:30;;;;;;;9.95;2.38;;;17.70;48.50;;;;;;5023481;28;20048;-63
2021/04/28 06:35:56;;;;;;;6.05;1.98;;;17.80;48.40;;;;;;5018563;28;20390;-64
2021/04/28 06:38:22;;;;;;;6.15;2.20;;;17.90;48.50;;;;;;5012590;28;20064;-62
2021/04/28 06:40:48;;;;;;;7.32;2.08;;;18.00;48.60;;;;;;5011303;28;20033;-63
2021/04/28 06:43:14;;;;;;;4.55;2.08;;;18.10;48.40;;;;;;5005930;28;20022;-63
2021/04/28 06:45:39;;;;;;;5.43;2.10;;;18.10;48.30;;;;;;5004342;28;20026;-64
2021/04/28 06:48:06;;;;;;;4.63;2.08;;;18.20;47.90;;;;;;5006357;28;20133;-61
2021/04/28 06:50:32;;;;;;;4.65;2.22;;;18.20;47.70;;;;;;5008964;28;20405;-64
2021/04/28 06:52:58;;;;;;;7.15;2.53;;;18.30;47.80;;;;;;5006430;28;20022;-63
2021/04/28 06:55:24;;;;;;;5.32;2.22;;;18.30;47.50;;;;;;5008617;28;20057;-63
2021/04/28 06:57:56;;;;;;;5.85;2.00;;;18.40;47.20;;;;;;5010886;28;20484;-62
2021/04/28 07:00:24;;;;;;;5.05;1.88;;;18.50;47.40;;;;;;5011790;28;20480;-61
2021/04/28 07:02:50;;;;;;;6.47;2.20;;;18.50;46.80;;;;;;5013831;28;20022;-61
2021/04/28 07:05:16;;;;;;;5.22;2.10;;;18.60;47.30;;;;;;5010743;28;20037;-63
2021/04/28 07:07:42;;;;;;;6.03;1.90;;;18.70;46.90;;;;;;5012080;28;20548;-62
2021/04/28 07:10:09;;;;;;;9.07;2.25;;;18.70;46.80;;;;;;5014511;28;20033;-63
2021/04/28 07:12:34;;;;;;;5.85;2.03;;;18.80;46.60;;;;;;5014078;28;20029;-63
2021/04/28 07:15:00;;;;;;;5.35;2.20;;;18.80;46.40;;;;;;5023083;28;20033;-62
2021/04/28 07:17:25;;;;;;;4.82;2.00;;;18.90;46.60;;;;;;5017407;28;20040;-62
2021/04/28 07:19:53;;;;;;;6.78;2.05;;;19.00;46.40;;;;;;5008120;28;20489;-61
2021/04/28 07:22:19;;;;;;;4.60;1.92;;;19.00;46.20;;;;;;5015711;28;20029;-64
2021/04/28 07:24:44;;;;;;;4.85;1.90;;;19.10;46.00;;;;;;5025254;28;20033;-62
2021/04/28 07:27:10;;;;;;;4.70;2.00;;;19.20;46.10;;;;;;5023962;28;20026;-62
2021/04/28 07:29:35;;;;;;;4.38;2.13;;;19.20;45.90;;;;;;5024676;28;20029;-63
2021/04/28 07:32:03;;;;;;;5.63;1.83;;;19.30;46.00;;;;;;5005550;28;20029;-62
2021/04/28 07:34:29;;;;;;;4.03;2.00;;;19.30;45.80;;;;;;5004850;28;20030;-64
2021/04/28 07:36:55;;;;;;;4.70;2.17;;;19.30;45.70;;;;;;5005817;28;20029;-63
2021/04/28 07:39:21;;;;;;;5.40;2.03;;;19.40;45.40;;;;;;5009226;28;20565;-64
2021/04/28 07:41:46;;;;;;;3.28;1.70;;;19.50;45.40;;;;;;5024314;28;20535;-61
2021/04/28 07:44:12;;;;;;;6.03;2.10;;;19.50;45.20;;;;;;5014626;28;20500;-62
2021/04/28 07:46:37;;;;;;;8.00;2.25;;;19.50;45.20;;;;;;5020053;28;20511;-61
2021/04/28 07:49:04;;;;;;;4.88;1.92;;;19.60;45.00;;;;;;5004416;28;20033;-61
2021/04/28 07:51:32;;;;;;;3.15;1.77;;;19.70;45.00;;;;;;5013438;28;20034;-62
2021/04/28 07:53:57;;;;;;;3.65;1.70;;;19.70;44.70;;;;;;5016170;28;20045;-65
2021/04/28 07:56:23;;;;;;;6.28;2.35;;;19.70;44.70;;;;;;5007471;28;20026;-63
2021/04/28 07:58:49;;;;;;;5.20;1.83;;;19.80;44.40;;;;;;5005478;28;20421;-62
2021/04/28 08:01:14;;;;;;;3.83;2.00;;;19.80;44.30;;;;;;5017561;28;20022;-63
2021/04/28 08:03:40;;;;;;;7.57;1.80;;;19.90;44.40;;;;;;5004203;28;20447;-63
2021/04/28 08:06:06;;;;;;;4.10;2.00;;;19.90;44.20;;;;;;5019385;28;20124;-61
2021/04/28 08:08:31;;;;;;;5.63;2.00;;;19.90;44.10;;;;;;5019986;28;20049;-62
2021/04/28 08:10:57;;;;;;;4.45;1.80;;;20.00;43.90;;;;;;5014559;28;20044;-66
2021/04/28 08:13:22;;;;;;;4.60;1.98;;;20.10;43.60;;;;;;5022021;28;20022;-62
2021/04/28 08:15:48;;;;;;;3.53;1.77;;;20.10;43.60;;;;;;5009289;28;20026;-61
2021/04/28 08:18:13;;;;;;;4.68;1.98;;;20.10;43.60;;;;;;5008734;28;20026;-62
2021/04/28 08:20:39;;;;;;;5.30;1.95;;;20.20;43.40;;;;;;5008918;28;20485;-62
2021/04/28 08:23:05;;;;;;;3.30;1.88;;;20.20;43.30;;;;;;5010664;28;20026;-62
2021/04/28 08:25:31;;;;;;;4.70;1.95;;;20.20;43.40;;;;;;5018753;28;20041;-62
2021/04/28 08:27:59;;;;;;;4.68;1.90;;;20.30;43.10;;;;;;5009810;28;20037;-63
2021/04/28 08:30:25;;;;;;;4.32;1.85;;;20.30;43.10;;;;;;5009612;28;20029;-62
2021/04/28 08:32:50;;;;;;;5.43;1.77;;;20.40;42.90;;;;;;5022048;28;20025;-64
2021/04/28 08:35:16;;;;;;;4.20;1.95;;;20.40;42.90;;;;;;5022068;28;20033;-61
2021/04/28 08:37:47;;;;;;;5.00;2.00;;;20.40;43.00;;;;;;5014629;28;20053;-64
2021/04/28 08:40:15;;;;;;;4.60;2.00;;;20.40;42.70;;;;;;5022206;28;20021;-62
2021/04/28 08:42:40;;;;;;;5.50;1.80;;;20.40;42.80;;;;;;5014532;28;20087;-61
2021/04/28 08:45:07;;;;;;;4.15;2.13;;;20.40;42.30;;;;;;5022732;28;20021;-61
2021/04/28 08:47:33;;;;;;;5.50;1.80;;;20.40;42.50;;;;;;5026684;28;20036;-62
2021/04/28 08:49:59;;;;;;;4.32;1.85;;;20.40;42.40;;;;;;5020168;28;20068;-60
2021/04/28 08:52:25;;;;;;;4.30;1.80;;;20.40;42.30;;;;;;5027860;28;20056;-64
2021/04/28 08:54:51;;;;;;;3.72;1.73;;;20.50;42.30;;;;;;5022369;28;20559;-62
2021/04/28 08:57:17;;;;;;;4.47;1.63;;;20.50;42.30;;;;;;5006862;28;20065;-61
2021/04/28 08:59:43;;;;;;;3.17;1.50;;;20.50;42.50;;;;;;5006625;28;20864;-62
2021/04/28 09:02:12;;;;;;;3.40;1.85;;;20.50;42.20;;;;;;5006831;28;20042;-61
2021/04/28 09:04:38;;;;;;;4.22;1.58;;;20.50;42.30;;;;;;5006267;28;20563;-63
2021/04/28 09:07:03;;;;;;;4.75;1.83;;;20.60;42.40;;;;;;5010797;28;20038;-65
2021/04/28 09:09:29;;;;;;;3.38;1.50;;;20.60;42.10;;;;;;5007427;28;20037;-65
2021/04/28 09:11:56;;;;;;;3.80;1.77;;;20.70;42.10;;;;;;5008261;28;20026;-62
2021/04/28 09:14:24;;;;;;;3.30;1.70;;;20.70;41.80;;;;;;5016277;28;20029;-62
2021/04/28 09:16:55;;;;;;;4.95;1.73;;;20.80;42.60;;;;;;5027052;28;20264;-63
2021/04/28 09:19:36;;;;;;;4.82;1.90;;;20.80;41.90;;;;;;5027333;28;20064;-61
2021/04/28 09:22:08;;;;;;;4.63;1.85;;;20.90;41.80;;;;;;5025532;28;20097;-62
2021/04/28 09:24:36;;;;;;;3.42;1.65;;;20.90;41.80;;;;;;5013674;28;20022;-63
2021/04/28 09:27:02;;;;;;;4.38;1.83;;;20.90;42.00;;;;;;5007279;28;20044;-63
2021/04/28 09:29:31;;;;;;;5.43;1.88;;;20.80;41.90;;;;;;5011489;28;20523;-62
2021/04/28 09:32:02;;;;;;;3.00;1.75;;;20.80;42.00;;;;;;5025129;28;20041;-63
2021/04/28 09:34:29;;;;;;;5.28;1.70;;;20.80;41.80;;;;;;5014108;28;20491;-64
2021/04/28 09:37:07;;;;;;;5.28;1.70;;;20.90;41.90;;;;;;5007367;28;20556;-65
2021/04/28 09:39:59;;;;;;;6.15;2.20;;;20.90;41.80;;;;;;5006205;28;20504;-62
2021/04/28 09:42:25;;;;;;;5.65;2.13;;;21.00;41.90;;;;;;5002700;28;20513;-63
2021/04/28 09:44:50;;;;;;;7.22;2.00;;;21.00;41.60;;;;;;5015863;28;20040;-63
2021/04/28 09:47:22;;;;;;;4.22;1.70;;;21.10;41.50;;;;;;5026972;28;20029;-65
2021/04/28 09:49:59;;;;;;;5.00;1.70;;;21.10;41.60;;;;;;5017088;28;20029;-62
2021/04/28 09:52:32;;;;;;;2.85;1.48;;;21.10;41.30;;;;;;5006883;28;20030;-64
2021/04/28 09:55:00;;;;;;;4.72;1.80;;;21.20;41.40;;;;;;5006837;28;20116;-64
2021/04/28 09:57:38;;;;;;;2.95;1.52;;;21.10;41.30;;;;;;5004698;28;20113;-64
2021/04/28 10:00:17;;;;;;;7.25;1.90;;;21.10;41.30;;;;;;5006639;28;20014;-62
2021/04/28 10:02:49;;;;;;;4.30;2.13;;;21.20;41.30;;;;;;5013661;28;20034;-62
2021/04/28 10:05:19;;;;;;;4.90;1.73;;;21.30;41.70;;;;;;5006612;28;20431;-64
2021/04/28 10:07:45;;;;;;;6.00;1.92;;;21.30;41.50;;;;;;5005099;28;20489;-64
2021/04/28 10:10:12;;;;;;;3.10;1.65;;;21.30;41.30;;;;;;5006929;28;20029;-64
2021/04/28 10:12:37;;;;;;;4.15;1.80;;;21.30;41.30;;;;;;5005629;28;20026;-62
2021/04/28 10:15:05;;;;;;;3.05;1.70;;;21.30;41.10;;;;;;5008538;28;20030;-64
2021/04/28 10:17:32;;;;;;;4.03;1.55;;;21.30;41.20;;;;;;5019109;28;20029;-63
2021/04/28 10:19:58;;;;;;;4.88;1.70;;;21.30;41.10;;;;;;5011947;28;20036;-64
2021/04/28 10:22:25;;;;;;;4.53;1.80;;;21.30;41.20;;;;;;5004054;28;20080;-62
2021/04/28 10:24:53;;;;;;;6.82;2.22;;;21.30;41.00;;;;;;5016911;28;20034;-60
2021/04/28 10:27:19;;;;;;;5.20;2.08;;;21.30;41.20;;;;;;5006744;28;20108;-61
2021/04/28 10:29:50;;;;;;;6.50;1.80;;;21.20;41.20;;;;;;5006758;28;20536;-61
2021/04/28 10:32:17;;;;;;;4.65;1.80;;;21.20;41.20;;;;;;5009551;28;20029;-64
2021/04/28 10:35:07;;;;;;;10.02;2.38;;;21.10;41.30;;;;;;5004896;28;20118;-61
2021/04/28 10:37:35;;;;;;;7.75;1.90;;;21.20;41.70;;;;;;5022558;28;20049;-61
2021/04/28 10:40:01;;;;;;;3.72;1.70;;;21.20;41.80;;;;;;5012403;28;20038;-63
2021/04/28 10:42:34;;;;;;;6.53;1.80;;;21.30;41.50;;;;;;5005527;28;20034;-62
2021/04/28 10:45:01;;;;;;;6.35;1.67;;;21.20;41.40;;;;;;5000653;28;20611;-64
2021/04/28 10:47:29;;;;;;;4.82;1.92;;;21.30;41.30;;;;;;5010841;28;20033;-64
2021/04/28 10:50:14;;;;;;;6.28;2.88;;;21.30;41.20;;;;;;5011296;28;20567;-65
2021/04/28 10:52:48;;;;;;;5.90;2.33;;;21.30;41.00;;;;;;5012754;28;20246;-64
2021/04/28 10:55:40;;;;;;;6.07;2.70;;;21.30;41.00;;;;;;5009305;28;20026;-64
2021/04/28 10:58:30;;;;;;;7.05;3.28;;;21.30;40.70;;;;;;5018961;28;20026;-65
2021/04/28 11:00:58;;;;;;;8.30;3.13;;;21.30;40.80;;;;;;5015176;28;20861;-65
2021/04/28 11:03:42;;;;;;;8.07;3.55;;;21.20;40.80;;;;;;5013238;28;20037;-63
2021/04/28 11:06:23;;;;;;;7.50;3.80;;;21.20;40.90;;;;;;5012015;28;20038;-67
2021/04/28 11:09:03;;;;;;;;;;;21.20;41.00;;;;;;5059961;23;20098;-63
2021/04/28 11:11:31;;;;;;;6.57;3.05;;;21.20;41.40;;;;;;5049665;28;20570;-64
2021/04/28 11:14:15;;;;;;;10.13;3.97;;;21.10;41.30;;;;;;5051582;28;20032;-61
2021/04/28 11:16:54;;;;;;;8.10;3.35;;;21.10;41.50;;;;;;5032523;28;20029;-63
2021/04/28 11:19:25;;;;;;;5.18;2.25;;;21.10;41.10;;;;;;5029723;28;20025;-65
2021/04/28 11:22:03;;;;;;;5.00;2.33;;;21.10;41.40;;;;;;5011167;28;20010;-64
2021/04/28 11:24:59;;;;;;;7.13;2.42;;;21.10;41.70;;;;;;5013172;28;20155;-69
2021/04/28 11:27:45;;;;;;;8.57;3.60;;;21.00;41.90;;;;;;5021027;28;20108;-65
2021/04/28 11:30:29;;;;;;;8.65;3.10;;;21.00;41.80;;;;;;5030204;28;20033;-67
2021/04/28 11:33:27;;;;;;;7.78;3.45;;;20.90;41.70;;;;;;5030378;28;20441;-66
2021/04/28 11:35:53;;;;;;;8.23;3.70;;;21.00;41.60;;;;;;5031528;28;20032;-64
2021/04/28 11:38:19;;;;;;;5.68;2.60;;;21.00;41.70;;;;;;5030405;28;20488;-65
2021/04/28 11:40:49;;;;;;;7.57;3.20;;;20.90;41.70;;;;;;5030421;28;20026;-66
2021/04/28 11:43:18;;;;;;;7.80;2.97;;;20.90;41.80;;;;;;5031694;28;20030;-66
2021/04/28 11:45:43;;;;;;;6.20;3.03;;;20.90;42.00;;;;;;5031012;28;20374;-66
2021/04/28 11:48:37;;;;;;;8.45;3.30;;;20.80;41.80;;;;;;5030569;28;20042;-66
2021/04/28 11:51:26;;;;;;;5.22;2.90;;;20.70;41.90;;;;;;5029156;28;20029;-64
2021/04/28 11:53:54;;;;;;;8.65;2.92;;;20.70;42.20;;;;;;5030323;28;20415;-63
2021/04/28 11:56:28;;;;;;;8.32;2.60;;;20.70;42.40;;;;;;5029929;28;20026;-65
2021/04/28 11:58:56;;;;;;;5.80;2.45;;;20.70;42.70;;;;;;5031517;28;20053;-66
2021/04/28 12:01:26;;;;;;;6.25;2.55;;;20.60;42.70;;;;;;5030814;28;20068;-64
2021/04/28 12:04:04;;;;;;;6.72;2.70;;;20.60;42.90;;;;;;5031479;28;20078;-65
2021/04/28 12:06:39;;;;;;;5.30;2.83;;;20.50;42.70;;;;;;5031378;28;20069;-64
2021/04/28 12:09:37;;;;;;;5.57;2.30;;;20.50;42.80;;;;;;5031283;28;20040;-64
2021/04/28 12:12:29;;;;;;;6.10;3.17;;;20.40;43.10;;;;;;5030101;28;20025;-64
2021/04/28 12:15:04;;;;;;;5.65;3.00;;;20.40;43.10;;;;;;5026391;28;20060;-64
2021/04/28 12:17:31;;;;;;;7.55;2.50;;;20.40;43.20;;;;;;5029246;28;20025;-64
2021/04/28 12:19:58;;;;;;;4.60;2.25;;;20.30;43.10;;;;;;5030900;28;20108;-64
2021/04/28 12:22:24;;;;;;;6.00;2.60;;;20.30;43.70;;;;;;5035402;28;20025;-64
2021/04/28 12:24:52;;;;;;;7.80;3.05;;;20.30;43.50;;;;;;5035073;28;20021;-65
2021/04/28 12:27:17;;;;;;;6.07;3.47;;;20.30;43.30;;;;;;5035237;28;20091;-65
2021/04/28 12:30:05;;;;;;;7.93;3.75;;;20.30;43.20;;;;;;5035075;28;20026;-64
2021/04/28 12:32:33;;;;;;;7.05;3.00;;;20.30;43.20;;;;;;5034277;28;20038;-64
2021/04/28 12:35:18;;;;;;;5.20;2.50;;;20.30;43.60;;;;;;5033613;28;20048;-63
2021/04/28 12:38:04;;;;;;;7.75;3.55;;;20.20;43.60;;;;;;5033794;28;20377;-66
2021/04/28 12:40:55;;;;;;;6.40;3.25;;;20.20;43.50;;;;;;5033563;28;20022;-64
2021/04/28 12:43:27;;;;;;;4.25;2.05;;;20.20;43.70;;;;;;5035049;28;20029;-63
2021/04/28 12:46:00;;;;;;;;;;;20.10;43.90;;;;;;5031496;28;20396;-63
2021/04/28 12:48:25;;;;;;;5.97;2.50;;;20.10;44.10;;;;;;5031412;28;19917;-64
2021/04/28 12:50:51;;;;;;;10.38;2.97;;;20.10;44.20;;;;;;5031072;28;20116;-64
2021/04/28 12:53:21;;;;;;;7.95;2.65;;;20.00;44.40;;;;;;5032695;28;20104;-66